createdAt,value
2023-05-09T00:00:18.444Z,20.50
2023-05-09T00:02:46.844Z,20.40
2023-05-09T00:05:16.094Z,20.40
2023-05-09T00:07:45.690Z,20.30
2023-05-09T00:10:15.770Z,20.10
2023-05-09T00:12:44.234Z,20.20
2023-05-09T00:15:13.859Z,20.10
2023-05-09T00:17:42.965Z,20.10
2023-05-09T00:20:12.525Z,20.00
2023-05-09T00:22:41.964Z,20.00
2023-05-09T00:25:12.664Z,20.00
2023-05-09T00:27:47.122Z,20.00
2023-05-09T00:30:16.039Z,20.00
2023-05-09T00:32:45.199Z,20.00
2023-05-09T00:35:13.808Z,20.10
2023-05-09T00:37:42.335Z,20.10
2023-05-09T00:40:12.122Z,20.10
2023-05-09T00:42:42.568Z,20.10
2023-05-09T00:45:12.830Z,20.10
2023-05-09T00:47:44.345Z,20.00
2023-05-09T00:50:13.880Z,20.00
2023-05-09T00:52:46.314Z,20.00
2023-05-09T00:55:16.526Z,19.90
2023-05-09T00:57:47.067Z,19.90
2023-05-09T01:00:16.834Z,19.90
2023-05-09T01:02:48.021Z,19.90
2023-05-09T01:05:17.133Z,19.90
2023-05-09T01:07:53.434Z,19.80
2023-05-09T01:10:32.630Z,19.80
2023-05-09T01:13:07.581Z,19.80
2023-05-09T01:15:41.169Z,19.80
2023-05-09T01:18:17.211Z,19.70
2023-05-09T01:20:50.549Z,19.60
2023-05-09T01:23:55.773Z,19.50
2023-05-09T01:26:36.611Z,19.40
2023-05-09T01:29:38.624Z,19.30
2023-05-09T01:32:11.123Z,19.30
2023-05-09T01:34:45.488Z,19.30
2023-05-09T01:37:16.423Z,19.30
2023-05-09T01:39:50.344Z,19.30
2023-05-09T01:42:22.213Z,19.40
2023-05-09T01:44:53.189Z,19.40
2023-05-09T01:47:23.257Z,19.50
2023-05-09T01:49:53.744Z,19.50
2023-05-09T01:52:22.788Z,19.60
2023-05-09T01:54:52.865Z,19.60
2023-05-09T01:57:22.127Z,19.60
2023-05-09T01:59:53.823Z,19.60
2023-05-09T02:02:22.983Z,19.70
2023-05-09T02:04:52.093Z,19.70
2023-05-09T02:07:22.101Z,19.60
2023-05-09T02:09:52.138Z,19.60
2023-05-09T02:12:20.930Z,19.50
2023-05-09T02:14:50.993Z,19.60
2023-05-09T02:17:19.646Z,19.60
2023-05-09T02:19:47.868Z,19.70
2023-05-09T02:22:16.965Z,19.70
2023-05-09T02:24:46.390Z,19.80
2023-05-09T02:27:15.970Z,19.80
2023-05-09T02:29:49.724Z,19.90
2023-05-09T02:32:25.836Z,19.80
2023-05-09T02:34:56.670Z,19.90
2023-05-09T02:37:26.206Z,19.90
2023-05-09T02:39:54.876Z,19.90
2023-05-09T02:42:26.130Z,20.00
2023-05-09T02:44:54.807Z,19.90
2023-05-09T02:47:25.800Z,20.00
2023-05-09T02:49:54.217Z,20.00
2023-05-09T02:52:22.966Z,20.00
2023-05-09T02:54:51.133Z,20.00
2023-05-09T02:57:19.820Z,20.00
2023-05-09T02:59:48.460Z,20.10
2023-05-09T03:02:18.038Z,20.10
2023-05-09T03:04:48.375Z,20.10
2023-05-09T03:07:19.535Z,20.10
2023-05-09T03:09:47.979Z,20.20
2023-05-09T03:12:16.628Z,20.00
2023-05-09T03:14:44.795Z,20.10
2023-05-09T03:17:13.062Z,20.10
2023-05-09T03:19:41.297Z,20.10
2023-05-09T03:22:11.758Z,20.10
2023-05-09T03:24:40.670Z,20.20
2023-05-09T03:27:09.194Z,20.10
2023-05-09T03:29:37.629Z,20.10
2023-05-09T03:32:06.583Z,20.10
2023-05-09T03:34:34.808Z,20.00
2023-05-09T03:37:03.202Z,20.00
2023-05-09T03:39:32.915Z,20.00
2023-05-09T03:42:01.061Z,20.10
2023-05-09T03:44:29.377Z,20.00
2023-05-09T03:47:00.041Z,20.00
2023-05-09T03:49:29.078Z,20.10
2023-05-09T03:51:57.334Z,20.00
2023-05-09T03:54:28.304Z,19.90
2023-05-09T03:56:57.889Z,20.00
2023-05-09T03:59:26.460Z,20.00
2023-05-09T04:01:55.146Z,20.10
2023-05-09T04:04:24.058Z,20.10
2023-05-09T04:06:52.467Z,20.10
2023-05-09T04:09:21.211Z,20.10
2023-05-09T04:11:49.819Z,20.10
2023-05-09T04:14:22.289Z,20.10
2023-05-09T04:16:50.529Z,20.10
2023-05-09T04:19:18.673Z,20.10
2023-05-09T04:21:46.840Z,20.10
2023-05-09T04:24:15.378Z,20.10
2023-05-09T04:26:46.787Z,20.00
2023-05-09T04:29:15.063Z,20.20
2023-05-09T04:31:44.892Z,20.20
2023-05-09T04:34:13.719Z,20.20
2023-05-09T04:36:44.184Z,20.20
2023-05-09T04:39:12.886Z,20.20
2023-05-09T04:41:43.770Z,20.20
2023-05-09T04:44:12.386Z,20.20
2023-05-09T04:46:43.913Z,20.00
2023-05-09T04:49:13.932Z,20.20
2023-05-09T04:51:44.739Z,20.20
2023-05-09T04:54:13.272Z,20.20
2023-05-09T04:56:41.962Z,20.20
2023-05-09T04:59:10.225Z,20.20
2023-05-09T05:01:38.576Z,20.10
2023-05-09T05:04:06.871Z,20.10
2023-05-09T05:06:37.019Z,20.10
2023-05-09T05:09:06.162Z,20.00
2023-05-09T05:11:34.524Z,20.10
2023-05-09T05:14:03.050Z,20.10
2023-05-09T05:16:31.251Z,20.10
2023-05-09T05:18:59.818Z,20.00
2023-05-09T05:21:28.128Z,19.90
2023-05-09T05:23:58.160Z,19.90
2023-05-09T05:26:26.829Z,19.90
2023-05-09T05:28:59.069Z,20.00
2023-05-09T05:31:27.935Z,20.00
2023-05-09T05:34:03.345Z,20.00
2023-05-09T05:36:32.817Z,19.90
2023-05-09T05:39:02.874Z,20.00
2023-05-09T05:41:31.762Z,20.00
2023-05-09T05:44:01.290Z,19.90
2023-05-09T05:46:29.887Z,20.00
2023-05-09T05:48:58.215Z,20.00
2023-05-09T05:51:26.360Z,20.10
2023-05-09T05:53:54.528Z,20.10
2023-05-09T05:56:29.305Z,19.90
2023-05-09T05:59:01.551Z,20.10
2023-05-09T06:01:30.281Z,20.10
2023-05-09T06:03:58.869Z,20.00
2023-05-09T06:06:28.540Z,20.10
2023-05-09T06:08:57.445Z,19.80
2023-05-09T06:11:27.413Z,20.10
2023-05-09T06:13:55.625Z,20.10
2023-05-09T06:16:24.038Z,20.10
2023-05-09T06:18:55.786Z,20.10
2023-05-09T06:21:27.715Z,20.00
2023-05-09T06:24:05.013Z,20.10
2023-05-09T06:26:40.635Z,20.10
2023-05-09T06:29:09.104Z,20.10
2023-05-09T06:31:41.426Z,20.20
2023-05-09T06:34:09.722Z,20.20
2023-05-09T06:36:37.924Z,20.30
2023-05-09T06:39:06.307Z,20.30
2023-05-09T06:41:34.497Z,20.30
2023-05-09T06:44:04.683Z,20.30
2023-05-09T06:46:33.128Z,20.30
2023-05-09T06:49:02.758Z,20.30
2023-05-09T06:51:31.421Z,20.30
2023-05-09T06:54:00.091Z,20.30
2023-05-09T07:10:50.375Z,20.20
2023-05-09T07:13:48.023Z,20.30
2023-05-09T07:16:18.273Z,20.30
2023-05-09T07:18:50.034Z,20.40
2023-05-09T07:21:20.541Z,20.40
2023-05-09T07:23:48.858Z,20.40
2023-05-09T07:26:17.248Z,20.40
2023-05-09T07:28:47.042Z,20.40
2023-05-09T07:31:15.375Z,20.50
2023-05-09T07:33:44.400Z,20.50
2023-05-09T07:36:14.825Z,20.40
2023-05-09T07:38:43.353Z,20.60
2023-05-09T07:41:11.617Z,20.60
2023-05-09T07:43:40.511Z,20.60
2023-05-09T07:46:16.678Z,20.60
2023-05-09T07:48:45.326Z,20.70
2023-05-09T07:51:14.375Z,20.70
2023-05-09T07:53:43.092Z,20.70
2023-05-09T07:56:14.708Z,20.70
2023-05-09T07:58:43.069Z,20.70
2023-05-09T08:01:12.767Z,20.70
2023-05-09T08:03:41.536Z,20.70
2023-05-09T08:06:12.596Z,20.70
2023-05-09T08:08:41.111Z,20.80
2023-05-09T08:11:09.345Z,20.70
2023-05-09T08:13:37.908Z,20.80
2023-05-09T08:16:06.881Z,20.70
2023-05-09T08:18:36.792Z,20.80
2023-05-09T08:21:05.330Z,20.80
2023-05-09T08:23:33.572Z,20.80
2023-05-09T08:26:02.024Z,20.80
2023-05-09T08:28:30.585Z,20.90
2023-05-09T08:30:59.103Z,20.90
2023-05-09T08:33:27.555Z,21.00
2023-05-09T08:35:57.498Z,21.20
2023-05-09T08:38:26.133Z,21.30
2023-05-09T08:40:54.506Z,21.50
2023-05-09T08:43:25.131Z,21.60
2023-05-09T08:45:58.669Z,21.70
2023-05-09T08:48:28.050Z,21.80
2023-05-09T08:50:58.594Z,21.80
2023-05-09T08:53:27.090Z,21.80
2023-05-09T08:55:55.742Z,21.80
2023-05-09T08:58:24.346Z,21.70
2023-05-09T09:00:52.734Z,21.80
2023-05-09T09:03:21.637Z,21.80
2023-05-09T09:05:51.357Z,21.80
2023-05-09T09:18:05.327Z,21.80
2023-05-09T09:20:36.886Z,21.90
2023-05-09T09:23:12.792Z,22.00
2023-05-09T09:25:41.082Z,22.10
2023-05-09T09:28:09.467Z,22.20
2023-05-09T09:30:45.523Z,22.20
2023-05-09T09:33:22.500Z,22.20
2023-05-09T09:35:55.504Z,22.30
2023-05-09T09:38:26.935Z,22.40
2023-05-09T09:40:56.657Z,22.40
2023-05-09T09:43:33.886Z,22.40
2023-05-09T09:46:03.533Z,22.50
2023-05-09T09:48:34.882Z,22.50
2023-05-09T09:51:11.489Z,22.50
2023-05-09T09:53:44.455Z,22.60
2023-05-09T09:56:12.834Z,22.60
2023-05-09T09:58:41.466Z,22.70
2023-05-09T10:01:13.894Z,22.70
2023-05-09T10:03:44.168Z,22.80
2023-05-09T10:06:15.975Z,22.80
2023-05-09T10:08:48.866Z,22.90
2023-05-09T10:11:17.209Z,22.90
2023-05-09T10:13:46.606Z,23.00
2023-05-09T10:16:16.053Z,23.10
2023-05-09T10:18:44.683Z,23.10
2023-05-09T10:21:16.995Z,23.20
2023-05-09T10:23:49.891Z,23.20
2023-05-09T10:26:31.243Z,23.30
2023-05-09T10:29:03.288Z,23.40
2023-05-09T10:31:36.136Z,23.50
2023-05-09T10:34:12.331Z,23.50
2023-05-09T10:36:42.538Z,23.50
2023-05-09T10:39:11.340Z,23.50
2023-05-09T10:41:41.177Z,23.60
2023-05-09T10:44:09.478Z,23.60
2023-05-09T10:46:38.836Z,23.70
2023-05-09T10:49:08.215Z,23.70
2023-05-09T10:51:39.233Z,23.70
2023-05-09T10:54:17.238Z,23.60
2023-05-09T10:56:45.702Z,23.70
2023-05-09T10:59:41.375Z,23.60
2023-05-09T11:02:15.653Z,23.60
2023-05-09T11:04:44.645Z,23.60
2023-05-09T11:07:36.701Z,23.50
2023-05-09T11:10:18.010Z,23.50
2023-05-09T11:12:58.361Z,23.50
2023-05-09T11:15:27.985Z,23.50
2023-05-09T11:18:08.351Z,23.50
2023-05-09T11:20:37.671Z,23.60
2023-05-09T11:23:07.186Z,23.70
2023-05-09T11:25:36.824Z,23.70
2023-05-09T11:28:05.431Z,23.70
2023-05-09T11:30:43.401Z,23.70
2023-05-09T11:33:24.211Z,23.70
2023-05-09T11:36:18.521Z,23.80
2023-05-09T11:38:47.908Z,23.90
2023-05-09T11:41:17.719Z,23.90
2023-05-09T11:43:46.383Z,23.90
2023-05-09T11:46:15.161Z,24.00
2023-05-09T11:48:43.507Z,24.10
2023-05-09T11:51:19.188Z,24.10
2023-05-09T11:53:51.388Z,24.10
2023-05-09T11:56:23.260Z,24.10
2023-05-09T11:58:53.445Z,24.10
2023-05-09T12:01:22.633Z,24.10
2023-05-09T12:03:52.645Z,24.10
2023-05-09T12:06:21.386Z,24.10
2023-05-09T12:08:50.576Z,24.00
2023-05-09T12:11:21.396Z,24.00
2023-05-09T12:13:50.810Z,23.90
2023-05-09T12:16:21.056Z,23.80
2023-05-09T12:18:51.719Z,23.80
2023-05-09T12:21:20.867Z,23.70
2023-05-09T12:23:51.762Z,23.60
2023-05-09T12:26:23.460Z,23.50
2023-05-09T12:28:53.303Z,23.50
2023-05-09T12:31:22.433Z,23.30
2023-05-09T12:33:50.832Z,23.40
2023-05-09T12:36:19.081Z,23.30
2023-05-09T12:38:54.922Z,23.20
2023-05-09T12:43:56.107Z,23.20
2023-05-09T12:46:27.739Z,23.20
2023-05-09T12:48:56.506Z,23.20
2023-05-09T12:51:25.844Z,23.10
2023-05-09T12:53:54.157Z,23.10
2023-05-09T12:56:24.489Z,23.00
2023-05-09T12:58:55.125Z,23.00
2023-05-09T13:01:29.381Z,23.00
2023-05-09T13:04:03.969Z,22.90
2023-05-09T13:06:32.939Z,22.90
2023-05-09T13:09:03.012Z,22.90
2023-05-09T13:11:33.460Z,22.90
2023-05-09T13:14:03.254Z,22.90
2023-05-09T13:16:31.644Z,22.90
2023-05-09T13:19:01.563Z,22.90
2023-05-09T13:21:29.935Z,22.90
2023-05-09T13:23:58.198Z,22.90
2023-05-09T13:26:27.364Z,22.80
2023-05-09T13:28:57.294Z,22.80
2023-05-09T13:31:26.324Z,22.70
2023-05-09T13:33:54.661Z,22.70
2023-05-09T13:36:26.089Z,22.70
2023-05-09T13:38:54.644Z,22.70
2023-05-09T13:41:24.023Z,22.70
2023-05-09T13:43:52.672Z,22.70
2023-05-09T13:46:22.496Z,22.70
2023-05-09T13:48:50.691Z,22.70
2023-05-09T13:51:18.886Z,22.60
2023-05-09T13:53:47.757Z,22.60
2023-05-09T13:56:19.555Z,22.60
2023-05-09T13:58:47.877Z,22.60
2023-05-09T14:01:16.058Z,22.50
2023-05-09T14:03:47.215Z,22.50
2023-05-09T14:06:15.592Z,22.40
2023-05-09T14:08:44.155Z,22.40
2023-05-09T14:11:12.390Z,22.30
2023-05-09T14:13:41.004Z,22.30
2023-05-09T14:16:09.644Z,22.30
2023-05-09T14:18:37.898Z,22.20
2023-05-09T14:21:08.191Z,22.20
2023-05-09T14:23:36.361Z,22.10
2023-05-09T14:26:04.940Z,22.10
2023-05-09T14:28:33.222Z,22.10
2023-05-09T14:31:01.557Z,22.00
2023-05-09T14:33:29.705Z,22.00
2023-05-09T14:35:58.046Z,22.00
2023-05-09T14:38:28.056Z,22.00
2023-05-09T14:40:58.138Z,22.00
2023-05-09T14:43:26.432Z,21.90
2023-05-09T14:45:54.679Z,21.90
2023-05-09T14:48:23.637Z,21.90
2023-05-09T14:50:56.236Z,21.90
2023-05-09T14:53:25.757Z,21.80
2023-05-09T14:55:56.174Z,21.80
2023-05-09T14:58:24.843Z,21.80
2023-05-09T15:00:53.465Z,21.70
2023-05-09T15:03:22.281Z,21.70
2023-05-09T15:05:51.468Z,21.70
2023-05-09T15:08:19.603Z,21.60
2023-05-09T15:10:48.205Z,21.50
2023-05-09T15:13:17.882Z,21.50
2023-05-09T15:15:46.255Z,21.50
2023-05-09T15:18:16.521Z,21.50
2023-05-09T15:20:44.986Z,21.40
2023-05-09T15:23:13.678Z,21.40
2023-05-09T15:25:43.441Z,21.50
2023-05-09T15:28:12.201Z,21.50
2023-05-09T15:30:41.820Z,21.40
2023-05-09T15:33:10.281Z,21.40
2023-05-09T15:35:38.780Z,21.40
2023-05-09T15:38:07.904Z,21.40
2023-05-09T15:40:37.863Z,21.40
2023-05-09T15:43:08.557Z,21.30
2023-05-09T15:45:37.880Z,21.30
2023-05-09T15:48:07.758Z,21.20
2023-05-09T15:50:36.050Z,21.20
2023-05-09T15:53:04.356Z,21.10
2023-05-09T15:55:33.656Z,21.10
2023-05-09T15:58:02.773Z,21.10
2023-05-09T16:00:31.065Z,21.10
2023-05-09T16:03:02.499Z,21.10
2023-05-09T16:05:32.538Z,21.10
2023-05-09T16:08:06.477Z,21.10
2023-05-09T16:10:34.850Z,21.10
2023-05-09T16:13:03.475Z,21.10
2023-05-09T16:15:35.332Z,21.10
2023-05-09T16:18:03.554Z,21.10
2023-05-09T16:20:33.437Z,21.10
2023-05-09T16:23:01.967Z,21.10
2023-05-09T16:25:30.348Z,21.00
2023-05-09T16:27:59.625Z,21.10
2023-05-09T16:30:28.132Z,21.00
2023-05-09T16:32:59.754Z,21.00
2023-05-09T16:35:28.280Z,20.90
2023-05-09T16:37:58.819Z,20.80
2023-05-09T16:40:29.832Z,20.80
2023-05-09T16:42:58.554Z,20.80
2023-05-09T16:45:26.937Z,20.80
2023-05-09T16:47:55.776Z,20.80
2023-05-09T16:50:24.478Z,20.70
2023-05-09T16:52:53.182Z,20.70
2023-05-09T16:55:22.706Z,20.70
2023-05-09T16:57:50.906Z,20.80
2023-05-09T17:00:20.843Z,20.80
2023-05-09T17:02:49.219Z,20.80
2023-05-09T17:05:17.521Z,20.70
2023-05-09T17:07:46.385Z,20.70
2023-05-09T17:10:15.229Z,20.70
2023-05-09T17:12:45.045Z,20.70
2023-05-09T17:15:13.881Z,20.70
2023-05-09T17:17:42.189Z,20.60
2023-05-09T17:20:11.712Z,20.50
2023-05-09T17:22:40.068Z,20.50
2023-05-09T17:25:09.785Z,20.40
2023-05-09T17:27:37.904Z,20.40
2023-05-09T17:30:09.892Z,20.40
2023-05-09T17:32:38.241Z,20.40
2023-05-09T17:35:07.981Z,20.40
2023-05-09T17:37:36.657Z,20.40
2023-05-09T17:40:05.937Z,20.40
2023-05-09T17:42:34.528Z,20.40
2023-05-09T17:45:02.980Z,20.40
2023-05-09T17:47:32.970Z,20.40
2023-05-09T17:50:08.334Z,20.40
2023-05-09T17:52:36.982Z,20.40
2023-05-09T17:55:07.926Z,20.40
2023-05-09T17:57:39.610Z,20.40
2023-05-09T18:00:10.161Z,20.20
2023-05-09T18:02:40.627Z,20.40
2023-05-09T18:05:11.245Z,20.40
2023-05-09T18:07:41.141Z,20.30
2023-05-09T18:10:11.060Z,20.30
2023-05-09T18:12:39.503Z,20.30
2023-05-09T18:15:10.408Z,20.30
2023-05-09T18:17:46.233Z,20.20
2023-05-09T18:20:15.318Z,20.30
2023-05-09T18:22:44.015Z,20.30
2023-05-09T18:25:12.277Z,20.20
2023-05-09T18:27:40.746Z,20.20
2023-05-09T18:30:10.591Z,20.10
2023-05-09T18:32:40.436Z,20.10
2023-05-09T18:35:09.938Z,20.10
2023-05-09T18:37:38.225Z,20.00
2023-05-09T18:40:15.918Z,20.00
2023-05-09T18:42:44.519Z,20.00
2023-05-09T18:45:14.506Z,19.90
2023-05-09T18:47:44.143Z,20.00
2023-05-09T18:50:14.227Z,20.00
2023-05-09T18:52:46.120Z,19.90
2023-05-09T18:55:14.932Z,19.90
2023-05-09T18:57:46.703Z,19.90
2023-05-09T19:00:16.071Z,20.00
2023-05-09T19:02:45.772Z,19.90
2023-05-09T19:05:16.403Z,19.90
2023-05-09T19:07:44.901Z,19.80
2023-05-09T19:10:14.406Z,19.70
2023-05-09T19:12:43.372Z,19.60
2023-05-09T19:15:12.717Z,19.60
2023-05-09T19:17:40.887Z,19.50
2023-05-09T19:20:13.186Z,19.40
2023-05-09T19:22:46.235Z,19.40
2023-05-09T19:25:14.454Z,19.30
2023-05-09T19:27:42.525Z,19.30
2023-05-09T19:30:13.107Z,19.30
2023-05-09T19:32:41.337Z,19.20
2023-05-09T19:35:11.500Z,19.20
2023-05-09T19:37:39.773Z,19.20
2023-05-09T19:40:09.495Z,19.20
2023-05-09T19:42:37.875Z,19.20
2023-05-09T19:45:07.466Z,19.10
2023-05-09T19:47:35.847Z,19.10
2023-05-09T19:50:04.385Z,19.10
2023-05-09T19:52:36.300Z,19.10
2023-05-09T19:55:05.899Z,19.10
2023-05-09T19:57:34.238Z,19.10
2023-05-09T20:00:03.367Z,19.10
2023-05-09T20:02:31.842Z,19.10
2023-05-09T20:05:00.712Z,19.10
2023-05-09T20:08:21.370Z,19.10
2023-05-09T20:10:50.621Z,19.10
2023-05-09T20:13:31.027Z,19.10
2023-05-09T20:16:04.532Z,18.90
2023-05-09T20:18:43.171Z,19.00
2023-05-09T20:21:17.937Z,19.10
2023-05-09T20:23:59.975Z,19.00
2023-05-09T20:26:30.268Z,18.90
2023-05-09T20:29:01.689Z,19.00
2023-05-09T20:31:30.398Z,19.00
2023-05-09T20:34:01.373Z,19.00
2023-05-09T20:36:30.925Z,18.70
2023-05-09T20:39:01.371Z,18.80
2023-05-09T20:41:29.955Z,18.90
2023-05-09T20:44:03.739Z,18.90
2023-05-09T20:46:32.134Z,18.90
2023-05-09T20:49:00.997Z,18.90
2023-05-09T20:51:29.214Z,18.90
2023-05-09T20:53:57.671Z,18.90
2023-05-09T20:56:29.196Z,18.90
2023-05-09T20:58:59.882Z,18.80
2023-05-09T21:01:39.847Z,18.90
2023-05-09T21:04:09.754Z,18.90
2023-05-09T21:06:38.585Z,18.90
2023-05-09T21:09:09.173Z,18.90
2023-05-09T21:11:41.448Z,18.80
2023-05-09T21:14:10.380Z,18.90
2023-05-09T21:16:38.917Z,18.90
2023-05-09T21:19:08.766Z,18.90
2023-05-09T21:21:37.377Z,18.90
2023-05-09T21:24:09.296Z,19.00
2023-05-09T21:26:39.049Z,19.00
2023-05-09T21:29:07.431Z,19.00
2023-05-09T21:31:35.729Z,19.00
2023-05-09T21:34:09.732Z,19.00
2023-05-09T21:36:38.526Z,19.10
2023-05-09T21:39:09.458Z,19.10
2023-05-09T21:41:42.678Z,19.10
2023-05-09T21:44:12.278Z,19.10
2023-05-09T21:46:41.186Z,19.10
2023-05-09T21:49:09.389Z,19.10
2023-05-09T21:51:37.753Z,19.10
2023-05-09T21:54:06.735Z,19.10
2023-05-09T21:56:35.025Z,19.10
2023-05-09T21:59:04.716Z,19.10
2023-05-09T22:01:33.095Z,19.10
2023-05-09T22:04:02.245Z,19.10
2023-05-09T22:06:31.238Z,19.10
2023-05-09T22:08:59.520Z,19.00
2023-05-09T22:11:28.055Z,19.10
2023-05-09T22:13:56.421Z,19.00
2023-05-09T22:16:26.068Z,19.10
2023-05-09T22:18:54.862Z,19.10
2023-05-09T22:21:23.068Z,19.00
2023-05-09T22:23:51.572Z,19.00
2023-05-09T22:26:19.773Z,19.00
2023-05-09T22:28:48.236Z,19.00
2023-05-09T22:31:16.557Z,19.00
2023-05-09T22:33:46.195Z,19.00
2023-05-09T22:36:15.256Z,19.10
2023-05-09T22:38:44.808Z,19.10
2023-05-09T22:41:13.437Z,19.10
2023-05-09T22:43:41.761Z,19.00
2023-05-09T22:46:10.551Z,19.00
2023-05-09T22:48:38.749Z,19.00
2023-05-09T22:51:08.424Z,19.00
2023-05-09T22:53:36.604Z,18.90
2023-05-09T22:56:05.302Z,18.80
2023-05-09T22:58:33.517Z,18.70
2023-05-09T23:01:01.900Z,18.50
2023-05-09T23:03:30.232Z,18.50
2023-05-09T23:05:58.591Z,18.50
2023-05-09T23:08:28.103Z,18.40
2023-05-09T23:11:30.495Z,18.30
2023-05-09T23:25:37.126Z,18.00
2023-05-09T23:53:19.614Z,17.60
2023-05-09T23:55:49.099Z,17.80
2023-05-09T23:58:17.643Z,17.80
